Time;durP1;ratioP1;P1;durP2;ratioP2;P2;SDS_P1;SDS_P2;PMS_P1;PMS_P2;Temp;Humidity;BMP_temperature;BMP_pressure;BME280_temperature;BME280_humidity;BME280_pressure;Samples;Min_cycle;Max_cycle;Signal;HPM_P1;HPM_P2
2024/04/12 00:01:47;;;;;;;5.40;3.58;;;15.70;15.20;;;;;;5468119;26;20003;-77
2024/04/12 00:04:15;;;;;;;7.00;3.30;;;15.70;16.50;;;;;;5462569;26;20071;-77
2024/04/12 00:06:59;;;;;;;5.53;3.58;;;15.70;16.00;;;;;;5474053;26;19994;-77
2024/04/12 00:09:25;;;;;;;3.70;3.45;;;15.70;17.90;;;;;;5472268;26;19991;-77
2024/04/12 00:11:55;;;;;;;3.55;3.25;;;15.70;16.00;;;;;;5474423;26;20005;-77
2024/04/12 00:14:22;;;;;;;3.58;3.15;;;15.70;15.80;;;;;;5469082;26;20008;-77
2024/04/12 00:16:52;;;;;;;3.65;3.30;;;15.70;18.50;;;;;;5467419;26;20027;-77
2024/04/12 00:19:18;;;;;;;6.70;3.92;;;15.70;15.80;;;;;;5472053;26;20066;-77
2024/04/12 00:21:52;;;;;;;3.58;3.35;;;15.70;14.60;;;;;;5468880;26;19991;-77
2024/04/12 00:24:23;;;;;;;7.97;3.67;;;15.70;15.80;;;;;;5474380;26;20005;-77
2024/04/12 00:26:49;;;;;;;3.83;3.20;;;15.70;14.70;;;;;;5460734;26;20013;-77
2024/04/12 00:29:36;;;;;;;4.80;3.58;;;15.70;13.70;;;;;;5466851;26;20007;-77
2024/04/12 00:32:05;;;;;;;5.25;3.22;;;15.70;18.20;;;;;;5470029;26;20503;-77
2024/04/12 00:34:47;;;;;;;5.50;3.35;;;15.70;22.10;;;;;;5469177;26;19994;-77
2024/04/12 00:37:15;;;;;;;;;;;15.70;25.50;;;;;;5463213;26;19999;-77
2024/04/12 00:39:47;;;;;;;4.25;3.80;;;15.60;21.60;;;;;;5471726;26;20354;-77
2024/04/12 00:42:14;;;;;;;3.80;3.50;;;15.60;25.20;;;;;;5471351;26;20026;-77
2024/04/12 00:44:41;;;;;;;4.63;3.53;;;15.60;27.90;;;;;;5467010;26;20005;-77
2024/04/12 00:47:15;;;;;;;4.75;3.53;;;15.60;27.50;;;;;;5463755;26;20009;-77
2024/04/12 00:49:49;;;;;;;6.05;3.72;;;15.60;28.60;;;;;;5469458;26;19994;-77
2024/04/12 00:52:28;;;;;;;4.57;3.60;;;15.60;28.10;;;;;;5472357;26;19990;-77
2024/04/12 00:55:01;;;;;;;3.88;3.15;;;15.60;24.90;;;;;;5429929;26;20414;-77
2024/04/12 00:57:27;;;;;;;4.72;3.45;;;15.60;27.30;;;;;;5474395;26;20040;-77
2024/04/12 00:59:55;;;;;;;7.80;3.90;;;15.60;30.90;;;;;;5468560;26;19990;-77
2024/04/12 01:02:21;;;;;;;3.65;3.35;;;15.60;26.50;;;;;;5471262;26;20440;-77
2024/04/12 01:04:49;;;;;;;5.18;3.13;;;15.60;24.10;;;;;;5469029;26;20023;-77
2024/04/12 01:07:18;;;;;;;4.38;3.35;;;15.60;21.90;;;;;;5466242;26;20469;-77
2024/04/12 01:09:44;;;;;;;5.88;3.50;;;15.70;20.30;;;;;;5467421;26;20504;-77
2024/04/12 01:12:16;;;;;;;3.85;3.42;;;15.70;14.40;;;;;;5465704;26;19995;-77
2024/04/12 01:14:46;;;;;;;5.60;3.42;;;15.70;15.20;;;;;;5470294;26;20002;-77
2024/04/12 01:17:12;;;;;;;6.57;3.70;;;15.70;15.60;;;;;;5464318;26;20387;-77
2024/04/12 01:19:38;;;;;;;3.33;3.03;;;15.70;14.60;;;;;;5461834;26;20019;-77
2024/04/12 01:22:05;;;;;;;3.20;2.90;;;15.70;16.00;;;;;;5469268;26;20064;-77
2024/04/12 01:24:33;;;;;;;3.70;3.40;;;15.70;12.20;;;;;;5470382;26;20083;-77
2024/04/12 01:27:01;;;;;;;3.95;3.53;;;15.70;16.90;;;;;;5469138;26;20019;-77
2024/04/12 01:29:27;;;;;;;4.32;3.80;;;15.60;20.40;;;;;;5470007;26;19990;-77
2024/04/12 01:31:53;;;;;;;4.93;3.60;;;15.60;16.60;;;;;;5467131;26;19998;-77
2024/04/12 01:34:20;;;;;;;4.10;3.47;;;15.70;12.70;;;;;;5471368;26;20368;-77
2024/04/12 01:36:45;;;;;;;4.85;3.55;;;15.60;15.10;;;;;;5471215;26;19998;-77
2024/04/12 01:39:11;;;;;;;3.97;3.67;;;15.70;17.90;;;;;;5467330;26;20322;-77
2024/04/12 01:41:38;;;;;;;5.72;3.30;;;15.60;15.20;;;;;;5470107;26;20020;-77
2024/04/12 01:44:06;;;;;;;5.25;3.30;;;15.60;14.00;;;;;;5467191;26;20085;-77
2024/04/12 01:46:36;;;;;;;5.28;3.95;;;15.60;16.30;;;;;;5467240;26;19995;-77
2024/04/12 01:49:05;;;;;;;3.92;3.17;;;15.70;13.30;;;;;;5471556;26;20005;-77
2024/04/12 01:51:34;;;;;;;3.20;3.03;;;15.60;11.00;;;;;;5466013;26;20447;-77
2024/04/12 01:54:13;;;;;;;5.25;3.50;;;15.60;13.40;;;;;;5470513;26;20010;-77
2024/04/12 01:56:44;;;;;;;6.03;3.65;;;15.60;14.70;;;;;;5476677;26;19990;-77
2024/04/12 01:59:15;;;;;;;5.85;3.30;;;15.60;13.10;;;;;;5458644;26;20010;-77
2024/04/12 02:01:46;;;;;;;3.78;2.80;;;15.60;11.50;;;;;;5463977;26;20456;-77
2024/04/12 02:04:15;;;;;;;3.65;3.35;;;15.60;11.90;;;;;;5460169;26;20010;-77
2024/04/12 02:06:42;;;;;;;4.03;3.20;;;15.60;17.10;;;;;;5463401;26;20497;-77
2024/04/12 02:09:14;;;;;;;7.38;3.55;;;15.60;19.30;;;;;;5469813;26;20566;-77
2024/04/12 02:11:45;;;;;;;5.60;3.63;;;15.50;17.00;;;;;;5467329;26;20031;-77
2024/04/12 02:14:12;;;;;;;7.63;4.37;;;15.50;15.20;;;;;;5468048;26;19994;-77
2024/04/12 02:16:39;;;;;;;5.20;3.45;;;15.60;12.30;;;;;;5468224;26;20645;-77
2024/04/12 02:19:10;;;;;;;3.55;3.28;;;15.60;14.20;;;;;;5469678;26;19998;-77
2024/04/12 02:21:40;;;;;;;4.20;3.85;;;15.60;15.70;;;;;;5469314;26;20064;-77
2024/04/12 02:24:08;;;;;;;5.40;3.33;;;15.50;14.50;;;;;;5467896;26;20071;-77
2024/04/12 02:26:35;;;;;;;3.88;3.58;;;15.50;12.40;;;;;;5465377;26;20002;-77
2024/04/12 02:29:04;;;;;;;5.00;3.28;;;15.50;13.30;;;;;;5469551;26;20480;-77
2024/04/12 02:31:35;;;;;;;8.27;3.70;;;15.50;18.70;;;;;;5467374;26;19990;-77
2024/04/12 02:34:02;;;;;;;4.00;3.60;;;15.50;22.40;;;;;;5464971;26;20449;-77
2024/04/12 02:36:31;;;;;;;5.57;3.50;;;15.40;23.00;;;;;;5465187;26;20332;-77
2024/04/12 02:38:58;;;;;;;4.97;3.55;;;15.50;16.10;;;;;;5468788;26;20070;-77
2024/04/12 02:41:29;;;;;;;3.42;3.20;;;15.50;18.90;;;;;;5466973;26;19999;-77
2024/04/12 02:43:56;;;;;;;5.33;3.60;;;15.40;24.10;;;;;;5474158;26;19990;-77
2024/04/12 02:46:24;;;;;;;4.50;3.13;;;15.40;27.20;;;;;;5469387;26;20055;-77
2024/04/12 02:48:51;;;;;;;4.32;3.20;;;15.40;26.40;;;;;;5468345;26;20003;-77
2024/04/12 02:51:18;;;;;;;11.10;3.50;;;15.50;19.90;;;;;;5474641;26;20005;-77
2024/04/12 02:53:47;;;;;;;4.38;3.35;;;15.40;15.30;;;;;;5469141;26;20067;-77
2024/04/12 02:56:14;;;;;;;5.63;3.65;;;15.50;12.70;;;;;;5474821;26;20443;-77
2024/04/12 02:58:44;;;;;;;5.55;3.13;;;15.50;17.90;;;;;;5468172;26;19998;-77
2024/04/12 03:01:23;;;;;;;4.43;3.50;;;15.50;22.80;;;;;;5461701;26;19999;-77
2024/04/12 03:03:58;;;;;;;4.93;3.45;;;15.40;23.70;;;;;;5466434;26;20005;-77
2024/04/12 03:06:26;;;;;;;5.25;3.42;;;15.40;23.50;;;;;;5469385;26;20066;-77
2024/04/12 03:08:53;;;;;;;4.75;3.40;;;15.40;24.10;;;;;;5472375;26;20001;-77
2024/04/12 03:11:25;;;;;;;3.75;3.35;;;15.40;25.90;;;;;;5460542;26;20437;-77
2024/04/12 03:14:04;;;;;;;3.45;3.20;;;15.40;24.80;;;;;;5469911;26;20077;-77
2024/04/12 03:16:31;;;;;;;5.43;3.58;;;15.40;22.60;;;;;;5467292;26;19999;-77
2024/04/12 03:18:57;;;;;;;3.67;3.47;;;15.40;26.30;;;;;;5473043;26;20027;-77
2024/04/12 03:21:30;;;;;;;6.75;3.60;;;15.30;26.80;;;;;;5475130;26;20327;-77
2024/04/12 03:23:57;;;;;;;6.75;3.45;;;15.30;27.00;;;;;;5466195;26;20013;-77
2024/04/12 03:26:24;;;;;;;4.32;3.70;;;15.30;28.00;;;;;;5469577;26;19994;-77
2024/04/12 03:28:54;;;;;;;8.05;3.63;;;15.30;29.20;;;;;;5473504;26;19994;-77
2024/04/12 03:31:25;;;;;;;5.30;3.42;;;15.30;26.60;;;;;;5470206;26;20064;-77
2024/04/12 03:33:54;;;;;;;5.47;3.75;;;15.30;26.30;;;;;;5472222;26;20332;-77
2024/04/12 03:41:57;;;;;;;9.18;3.45;;;15.40;18.90;;;;;;5468140;26;20345;-77
2024/04/12 03:44:25;;;;;;;6.05;3.92;;;15.30;24.20;;;;;;5468941;26;19987;-77
2024/04/12 03:46:52;;;;;;;6.45;3.50;;;15.30;25.30;;;;;;5462438;26;20197;-77
2024/04/12 03:49:20;;;;;;;6.35;3.92;;;15.30;21.90;;;;;;5471837;26;20006;-77
2024/04/12 03:51:49;;;;;;;6.35;3.88;;;15.30;22.40;;;;;;5468127;26;19995;-77
2024/04/12 03:54:18;;;;;;;5.07;4.13;;;15.40;23.30;;;;;;5473314;26;20001;-77
2024/04/12 03:56:51;;;;;;;5.30;3.13;;;15.30;18.70;;;;;;5460609;26;19994;-77
2024/04/12 03:59:29;;;;;;;4.15;3.55;;;15.40;16.40;;;;;;5462588;26;19995;-77
2024/04/12 04:01:56;;;;;;;5.75;3.53;;;15.30;22.50;;;;;;5471235;26;20324;-77
2024/04/12 04:04:26;;;;;;;5.90;4.15;;;15.40;22.60;;;;;;5467613;26;20013;-77
2024/04/12 04:06:55;;;;;;;5.97;4.15;;;15.30;24.20;;;;;;5471991;26;20001;-77
2024/04/12 04:09:25;;;;;;;6.53;4.10;;;15.30;28.10;;;;;;5469769;26;20447;-77
2024/04/12 04:11:55;;;;;;;7.95;3.35;;;15.30;31.20;;;;;;5467246;26;20394;-77
2024/04/12 04:14:28;;;;;;;5.05;3.60;;;15.30;31.10;;;;;;5475065;26;20038;-77
2024/04/12 04:17:00;;;;;;;5.45;3.75;;;15.20;34.50;;;;;;5455735;26;20410;-77
2024/04/12 04:19:31;;;;;;;4.75;4.32;;;15.20;33.30;;;;;;5462582;26;20006;-77
2024/04/12 04:22:01;;;;;;;4.18;3.88;;;15.20;33.40;;;;;;5472354;26;20005;-77
2024/04/12 04:24:32;;;;;;;5.47;4.35;;;15.20;31.80;;;;;;5469781;26;19994;-77
2024/04/12 04:26:58;;;;;;;5.60;3.63;;;15.20;27.00;;;;;;5471167;26;19990;-77
2024/04/12 04:29:23;;;;;;;5.95;4.00;;;15.20;25.60;;;;;;5469347;26;20525;-77
2024/04/12 04:31:51;;;;;;;3.97;3.67;;;15.30;24.20;;;;;;5474346;26;20005;-77
2024/04/12 04:34:18;;;;;;;5.15;3.45;;;15.20;24.00;;;;;;5473811;26;20005;-77
2024/04/12 04:36:48;;;;;;;7.53;3.80;;;15.20;29.30;;;;;;5472232;26;20021;-77
2024/04/12 04:39:15;;;;;;;6.80;4.07;;;15.20;38.20;;;;;;5470227;26;20311;-77
2024/04/12 04:41:48;;;;;;;5.28;3.60;;;15.10;40.50;;;;;;5471711;26;19994;-77
2024/04/12 04:44:17;;;;;;;4.78;4.00;;;15.10;41.80;;;;;;5471318;26;20002;-77
2024/04/12 04:46:46;;;;;;;7.75;4.13;;;15.10;41.00;;;;;;5468609;26;19987;-77
2024/04/12 04:49:18;;;;;;;8.32;5.00;;;15.10;43.00;;;;;;5468664;26;20002;-77
2024/04/12 04:51:47;;;;;;;4.82;4.22;;;15.00;41.70;;;;;;5467829;26;20095;-77
2024/04/12 04:54:14;;;;;;;10.05;4.00;;;15.10;44.50;;;;;;5472886;26;20009;-77
2024/04/12 04:56:46;;;;;;;4.65;4.07;;;15.10;43.80;;;;;;5467776;26;19995;-77
2024/04/12 04:59:16;;;;;;;5.40;3.67;;;15.10;45.50;;;;;;5459907;26;19995;-77
2024/04/12 05:01:48;;;;;;;4.18;3.78;;;15.10;47.50;;;;;;5443421;26;20087;-77
2024/04/12 05:04:21;;;;;;;6.15;4.55;;;15.00;52.10;;;;;;5468330;26;20433;-77
2024/04/12 05:06:53;;;;;;;5.65;4.32;;;15.00;49.70;;;;;;5470329;26;20054;-77
2024/04/12 05:09:22;;;;;;;9.32;3.80;;;15.10;48.50;;;;;;5466857;26;20086;-77
2024/04/12 05:11:52;;;;;;;6.60;4.20;;;15.00;50.80;;;;;;5473468;26;19995;-77
2024/04/12 05:17:07;;;;;;;6.93;4.40;;;15.10;54.90;;;;;;5451301;26;20026;-77
2024/04/12 05:19:40;;;;;;;6.97;4.05;;;15.00;51.80;;;;;;5460196;26;19998;-77
2024/04/12 05:22:13;;;;;;;6.43;4.10;;;15.00;52.00;;;;;;5456125;26;19995;-77
2024/04/12 05:24:42;;;;;;;6.97;4.50;;;15.10;47.00;;;;;;5458058;26;19994;-77
2024/04/12 05:27:10;;;;;;;5.40;3.85;;;15.10;49.60;;;;;;5452065;26;20017;-77
2024/04/12 05:29:36;;;;;;;4.63;4.05;;;15.10;50.00;;;;;;5447942;26;20029;-77
2024/04/12 05:32:06;;;;;;;5.65;4.10;;;15.20;50.90;;;;;;5448754;26;19995;-77
2024/04/12 05:34:32;;;;;;;9.07;4.55;;;15.20;51.10;;;;;;5450433;26;20014;-77
2024/04/12 05:37:04;;;;;;;6.13;4.20;;;15.20;52.90;;;;;;5444605;26;20006;-77
2024/04/12 05:39:33;;;;;;;;;;;15.30;55.50;;;;;;5448390;26;20006;-77
2024/04/12 05:42:00;;;;;;;4.55;4.20;;;15.30;63.30;;;;;;5455347;26;19924;-77
2024/04/12 05:44:26;;;;;;;9.75;3.92;;;15.30;61.90;;;;;;5459211;26;20040;-77
2024/04/12 05:46:52;;;;;;;6.18;4.35;;;15.30;58.60;;;;;;5456886;26;20550;-77
2024/04/12 05:49:20;;;;;;;6.20;4.55;;;15.30;55.10;;;;;;5455812;26;19995;-77
2024/04/12 05:51:49;;;;;;;5.70;4.10;;;15.40;56.80;;;;;;5469204;26;20568;-78
2024/04/12 05:54:18;;;;;;;9.23;3.92;;;15.40;58.80;;;;;;5455613;26;19995;-77
2024/04/12 05:56:47;;;;;;;5.80;4.28;;;15.40;53.20;;;;;;5449980;26;20026;-77
2024/04/12 05:59:17;;;;;;;7.80;4.72;;;15.50;59.10;;;;;;5456912;26;20511;-78
2024/04/12 06:01:44;;;;;;;9.43;4.40;;;15.50;56.40;;;;;;5463222;26;19998;-78
2024/04/12 06:04:19;;;;;;;5.68;4.22;;;15.50;61.50;;;;;;5442788;26;20002;-78
2024/04/12 06:06:46;;;;;;;4.00;3.70;;;15.50;71.10;;;;;;5466252;26;19990;-78
2024/04/12 06:09:21;;;;;;;8.65;3.95;;;15.60;68.20;;;;;;5460569;26;20414;-77
2024/04/12 06:11:54;;;;;;;6.05;3.90;;;15.60;64.50;;;;;;5466908;26;20092;-77
2024/04/12 06:14:21;;;;;;;6.93;4.93;;;15.60;78.40;;;;;;5460308;26;20296;-77
2024/04/12 06:16:52;;;;;;;13.00;6.55;;;15.70;77.60;;;;;;5451659;26;20006;-77
2024/04/12 06:19:18;;;;;;;7.93;4.95;;;15.70;70.70;;;;;;5468550;26;19998;-77
2024/04/12 06:21:48;;;;;;;7.50;4.38;;;15.70;74.10;;;;;;5466320;26;20018;-77
2024/04/12 06:24:26;;;;;;;9.30;4.47;;;15.70;73.10;;;;;;5450811;26;20009;-77
2024/04/12 06:26:58;;;;;;;4.72;4.25;;;15.80;64.20;;;;;;5462796;26;20537;-77
2024/04/12 06:29:26;;;;;;;;;;;15.90;58.60;;;;;;5469752;26;19994;-77
2024/04/12 06:31:55;;;;;;;4.25;3.47;;;16.00;60.60;;;;;;5469210;26;19997;-77
2024/04/12 06:34:22;;;;;;;8.68;4.28;;;16.00;56.80;;;;;;5468528;26;20349;-77
2024/04/12 06:36:56;;;;;;;4.70;4.15;;;16.00;59.00;;;;;;5464847;26;19999;-77
2024/04/12 06:39:26;;;;;;;6.28;4.50;;;16.10;59.40;;;;;;5470157;26;20455;-77
2024/04/12 06:41:55;;;;;;;5.38;4.05;;;16.20;61.70;;;;;;5466689;26;19995;-77
2024/04/12 06:44:21;;;;;;;6.38;4.57;;;16.30;67.60;;;;;;5471560;26;20005;-78
2024/04/12 06:46:51;;;;;;;4.72;3.65;;;16.30;63.70;;;;;;5458678;26;19995;-77
2024/04/12 06:49:19;;;;;;;6.43;4.22;;;16.40;48.90;;;;;;5471756;26;20066;-78
2024/04/12 06:54:36;;;;;;;8.82;4.78;;;16.50;47.30;;;;;;5465679;26;20067;-78
2024/04/12 06:57:06;;;;;;;15.02;4.68;;;16.50;45.20;;;;;;5467450;26;20001;-77
2024/04/12 06:59:35;;;;;;;5.28;4.35;;;16.60;41.40;;;;;;5469809;26;20444;-78
2024/04/12 07:02:05;;;;;;;7.00;4.50;;;16.60;43.20;;;;;;5466550;26;20377;-77
2024/04/12 07:04:31;;;;;;;4.65;4.25;;;16.70;38.00;;;;;;5471306;26;20070;-77
2024/04/12 07:06:57;;;;;;;5.45;4.18;;;16.70;33.90;;;;;;5465324;26;20007;-77
2024/04/12 07:09:23;;;;;;;9.30;4.05;;;16.80;39.00;;;;;;5468281;26;20409;-77
2024/04/12 07:11:52;;;;;;;4.80;4.22;;;16.80;34.10;;;;;;5458350;26;20079;-78
2024/04/12 07:14:22;;;;;;;5.93;3.67;;;16.80;45.30;;;;;;5468381;26;20004;-77
2024/04/12 07:16:53;;;;;;;17.17;4.70;;;16.90;27.10;;;;;;5467136;26;19990;-77
2024/04/12 07:19:23;;;;;;;7.47;3.90;;;17.00;29.50;;;;;;5457615;26;20059;-78
2024/04/12 07:21:54;;;;;;;6.78;4.40;;;17.00;4.20;;;;;;5465597;26;20071;-77
2024/04/12 07:24:23;;;;;;;9.82;4.93;;;17.10;1.00;;;;;;5465546;26;19995;-77
2024/04/12 07:26:54;;;;;;;7.32;4.60;;;17.10;1.00;;;;;;5464147;26;19999;-78
2024/04/12 07:29:21;;;;;;;11.35;4.93;;;17.10;1.00;;;;;;5470937;26;20005;-78
2024/04/12 07:31:53;;;;;;;6.50;4.25;;;17.20;1.00;;;;;;5475605;26;19998;-78
2024/04/12 07:34:19;;;;;;;8.30;5.10;;;17.30;1.00;;;;;;5471392;26;20467;-77
2024/04/12 07:36:44;;;;;;;8.85;5.72;;;17.30;1.00;;;;;;5467627;26;20228;-77
2024/04/12 07:39:15;;;;;;;5.82;4.53;;;17.30;1.00;;;;;;5467392;26;20098;-78
2024/04/12 07:41:45;;;;;;;4.43;4.05;;;17.40;1.00;;;;;;5471735;26;19998;-78
2024/04/12 07:44:14;;;;;;;7.05;4.80;;;17.50;1.00;;;;;;5471706;26;20011;-77
2024/04/12 07:46:48;;;;;;;9.55;4.50;;;17.60;1.00;;;;;;5470878;26;20001;-77
2024/04/12 07:49:15;;;;;;;6.07;5.05;;;17.70;1.00;;;;;;5466625;26;19998;-77
2024/04/12 07:51:45;;;;;;;6.55;4.28;;;17.70;1.00;;;;;;5472064;26;19998;-77
2024/04/12 07:54:15;;;;;;;7.75;4.68;;;17.70;1.00;;;;;;5468473;26;20006;-77
2024/04/12 07:57:07;;;;;;;5.88;3.97;;;17.70;1.00;;;;;;5461310;26;19991;-77
2024/04/12 07:59:37;;;;;;;8.93;4.05;;;17.80;1.00;;;;;;5466797;26;20396;-77
2024/04/12 08:02:06;;;;;;;4.28;3.72;;;17.90;1.00;;;;;;5467727;26;20436;-77
2024/04/12 08:04:37;;;;;;;7.25;4.90;;;17.90;1.00;;;;;;5474470;26;19998;-78
2024/04/12 08:07:13;;;;;;;5.22;4.30;;;17.90;1.00;;;;;;5461543;26;20432;-78
2024/04/12 08:09:46;;;;;;;11.38;4.63;;;18.00;1.00;;;;;;5474799;26;19998;-78
2024/04/12 08:12:17;;;;;;;9.73;4.80;;;18.10;1.00;;;;;;5469438;26;20005;-78
2024/04/12 08:14:55;;;;;;;7.60;4.40;;;18.20;1.00;;;;;;5474455;26;19991;-78
2024/04/12 08:17:27;;;;;;;6.25;3.92;;;18.20;1.00;;;;;;5463617;26;20003;-78
2024/04/12 08:19:55;;;;;;;4.45;4.05;;;18.30;1.00;;;;;;5462736;26;19995;-78
2024/04/12 08:22:28;;;;;;;7.53;4.28;;;18.40;1.00;;;;;;5473777;26;20456;-78
2024/04/12 08:24:54;;;;;;;5.28;3.70;;;18.40;1.00;;;;;;5467773;26;20318;-78
2024/04/12 08:27:24;;;;;;;13.15;4.25;;;18.40;1.00;;;;;;5472483;26;19998;-78
2024/04/12 08:29:55;;;;;;;6.32;4.30;;;18.50;1.00;;;;;;5470078;26;20060;-78
2024/04/12 08:32:33;;;;;;;14.68;5.10;;;18.50;99.90;;;;;;5470397;26;20058;-78
2024/04/12 08:35:06;;;;;;;8.43;5.00;;;18.50;99.90;;;;;;5466181;26;20010;-78
2024/04/12 08:37:36;;;;;;;10.40;5.88;;;18.50;1.00;;;;;;5458695;26;20379;-78
2024/04/12 08:40:08;;;;;;;10.80;5.03;;;18.60;1.00;;;;;;5467496;26;19994;-78
2024/04/12 08:42:34;;;;;;;4.95;3.95;;;18.60;1.00;;;;;;5470064;26;20321;-78
2024/04/12 08:45:12;;;;;;;11.48;4.90;;;18.70;1.00;;;;;;5468475;26;20005;-78
2024/04/12 08:47:54;;;;;;;6.22;4.38;;;18.70;1.00;;;;;;5458991;26;19999;-78
2024/04/12 08:50:24;;;;;;;14.05;4.35;;;18.70;1.00;;;;;;5461093;26;19990;-78
2024/04/12 08:52:55;;;;;;;5.75;4.13;;;18.80;1.00;;;;;;5468335;26;20440;-78
2024/04/12 08:55:28;;;;;;;5.25;3.90;;;18.70;99.90;;;;;;5470157;26;20029;-78
2024/04/12 08:58:04;;;;;;;6.13;4.13;;;18.80;1.00;;;;;;5469865;26;20005;-78
2024/04/12 09:00:33;;;;;;;6.53;4.75;;;19.00;99.90;;;;;;5468452;26;20468;-78
2024/04/12 09:03:10;;;;;;;7.65;4.00;;;18.90;99.90;;;;;;5474815;26;20002;-78
2024/04/12 09:05:38;;;;;;;11.48;4.22;;;18.90;1.00;;;;;;5461785;26;20009;-78
2024/04/12 09:08:05;;;;;;;9.18;4.03;;;18.90;1.00;;;;;;5473974;26;20413;-78
2024/04/12 09:10:35;;;;;;;5.75;4.35;;;18.90;1.00;;;;;;5472603;26;19990;-78
2024/04/12 09:13:08;;;;;;;6.72;5.00;;;19.00;99.90;;;;;;5467993;26;19995;-78
2024/04/12 09:15:43;;;;;;;7.70;4.28;;;19.00;99.90;;;;;;5470730;26;20004;-78
2024/04/12 09:18:19;;;;;;;7.32;4.03;;;19.10;1.00;;;;;;5459121;26;19995;-78
2024/04/12 09:20:52;;;;;;;5.97;4.10;;;19.10;1.00;;;;;;5473624;26;20341;-78
2024/04/12 09:23:32;;;;;;;8.30;4.43;;;19.20;99.90;;;;;;5459645;26;20097;-78
2024/04/12 09:25:59;;;;;;;8.00;4.88;;;19.30;99.90;;;;;;5469497;26;20018;-78
2024/04/12 09:28:30;;;;;;;11.88;4.72;;;19.30;99.90;;;;;;5473939;26;20009;-78
2024/04/12 09:33:50;;;;;;;6.80;4.28;;;19.40;99.90;;;;;;5462791;26;20697;-78
2024/04/12 09:36:38;;;;;;;4.45;4.05;;;19.40;99.90;;;;;;5469769;26;20002;-78
2024/04/12 09:39:16;;;;;;;11.23;4.28;;;19.50;99.90;;;;;;5462194;26;19995;-78
2024/04/12 09:41:53;;;;;;;10.35;4.90;;;19.70;99.90;;;;;;5469437;26;19991;-78
2024/04/12 09:44:41;;;;;;;12.43;4.60;;;19.70;99.90;;;;;;5464990;26;20052;-78
2024/04/12 10:37:36;;;;;;;8.13;5.57;;;20.80;99.90;;;;;;5402309;26;19995;-78
2024/04/12 10:40:09;;;;;;;8.13;6.43;;;20.80;99.90;;;;;;5460969;26;20064;-78
2024/04/12 10:42:35;;;;;;;10.10;5.88;;;20.90;99.90;;;;;;5469358;26;20006;-78
2024/04/12 10:45:07;;;;;;;10.45;5.82;;;21.00;99.90;;;;;;5467757;26;20001;-78
2024/04/12 10:47:37;;;;;;;6.20;5.70;;;21.20;99.90;;;;;;5468200;26;19991;-77
2024/04/12 10:50:07;;;;;;;14.48;6.00;;;21.40;99.90;;;;;;5465950;26;20581;-78
2024/04/12 10:52:33;;;;;;;10.10;5.63;;;21.50;99.90;;;;;;5469906;26;20007;-78
2024/04/12 10:55:16;;;;;;;7.07;5.07;;;21.50;20.60;;;;;;5465625;26;20006;-78
2024/04/12 10:57:43;;;;;;;5.38;4.53;;;21.50;99.90;;;;;;5451708;26;19990;-78
2024/04/12 11:00:15;;;;;;;11.32;6.40;;;21.60;99.90;;;;;;5472018;26;20007;-78
2024/04/12 11:02:46;;;;;;;9.13;6.03;;;21.70;1.00;;;;;;5464527;26;19998;-78
2024/04/12 11:07:54;;;;;;;10.98;5.50;;;21.70;1.00;;;;;;5468484;26;20358;-77
2024/04/12 11:10:37;;;;;;;11.27;6.35;;;21.80;99.90;;;;;;5468428;26;20069;-77
2024/04/12 11:13:06;;;;;;;12.30;6.68;;;21.80;1.00;;;;;;5454770;26;20003;-78
2024/04/12 11:31:55;;;;;;;10.98;6.68;;;22.60;1.00;;;;;;5470000;26;20002;-78
2024/04/12 11:34:25;;;;;;;14.88;7.30;;;22.70;24.60;;;;;;5475320;26;19998;-77
2024/04/12 11:36:54;;;;;;;12.30;7.85;;;22.70;1.00;;;;;;5469752;26;19994;-78
2024/04/12 11:39:25;;;;;;;12.93;7.65;;;22.90;1.00;;;;;;5473616;26;19998;-77
2024/04/12 11:41:55;;;;;;;10.80;6.63;;;23.00;1.00;;;;;;5468277;26;20003;-77
2024/04/12 11:44:24;;;;;;;12.05;6.70;;;22.90;1.00;;;;;;5461259;26;20456;-77
2024/04/12 11:46:50;;;;;;;13.02;6.57;;;23.00;1.00;;;;;;5457697;26;19995;-77
2024/04/12 11:49:27;;;;;;;13.80;8.07;;;23.00;99.90;;;;;;5474841;26;20013;-77
2024/04/12 11:51:55;;;;;;;12.02;7.40;;;23.20;1.00;;;;;;5463403;26;20013;-77
2024/04/12 11:54:22;;;;;;;13.23;6.60;;;23.30;99.90;;;;;;5468318;26;19994;-77
2024/04/12 11:56:49;;;;;;;20.73;8.18;;;23.40;99.90;;;;;;5475302;26;19998;-77
2024/04/12 11:59:18;;;;;;;16.08;7.40;;;23.40;99.90;;;;;;5475705;26;19998;-77
2024/04/12 12:01:44;;;;;;;14.63;7.43;;;23.40;99.90;;;;;;5470677;26;20030;-77
2024/04/12 12:04:11;;;;;;;9.82;6.85;;;23.50;99.90;;;;;;5467996;26;20469;-77
2024/04/12 12:06:41;;;;;;;13.23;7.80;;;23.40;99.90;;;;;;5472731;26;19990;-77
2024/04/12 12:09:11;;;;;;;12.95;8.10;;;23.50;99.90;;;;;;5465334;26;20332;-77
2024/04/12 12:11:43;;;;;;;11.43;8.07;;;23.50;99.90;;;;;;5466008;26;20075;-77
2024/04/12 12:14:09;;;;;;;11.77;8.20;;;23.60;99.90;;;;;;5464578;26;20436;-77
2024/04/12 12:16:36;;;;;;;12.85;6.97;;;23.60;99.90;;;;;;5459275;26;20002;-77
2024/04/12 12:19:06;;;;;;;8.15;6.95;;;23.70;99.90;;;;;;5464556;26;20010;-77
2024/04/12 12:21:33;;;;;;;12.75;6.35;;;23.90;99.90;;;;;;5464635;26;20005;-77
2024/04/12 12:23:59;;;;;;;12.05;6.72;;;24.00;99.90;;;;;;5462591;26;20076;-77
2024/04/12 12:26:25;;;;;;;11.48;6.95;;;24.20;99.90;;;;;;5474545;26;19994;-77
2024/04/12 12:28:51;;;;;;;11.82;6.75;;;24.30;99.90;;;;;;5465391;26;20049;-77
2024/04/12 12:31:18;;;;;;;23.38;7.25;;;24.30;99.90;;;;;;5460109;26;19998;-77
2024/04/12 12:33:49;;;;;;;12.25;7.80;;;24.40;99.90;;;;;;5463531;26;20002;-77
2024/04/12 12:36:17;;;;;;;8.93;7.03;;;24.50;99.90;;;;;;5460731;26;19998;-77
2024/04/12 12:38:45;;;;;;;8.60;6.53;;;24.40;69.80;;;;;;5465254;26;20362;-77
2024/04/12 12:41:13;;;;;;;12.00;6.40;;;24.50;99.90;;;;;;5461502;26;20009;-77
2024/04/12 12:43:44;;;;;;;7.82;6.38;;;24.60;99.90;;;;;;5465445;26;19995;-77
2024/04/12 12:46:10;;;;;;;7.25;6.38;;;24.80;99.90;;;;;;5460791;26;20439;-77
2024/04/12 12:48:39;;;;;;;13.15;7.05;;;24.90;99.90;;;;;;5464372;26;20010;-77
2024/04/12 12:51:06;;;;;;;9.10;6.30;;;24.90;99.90;;;;;;5461922;26;20441;-77
2024/04/12 12:53:34;;;;;;;14.25;6.28;;;25.00;99.90;;;;;;5465703;26;20010;-77
2024/04/12 12:55:59;;;;;;;11.20;6.22;;;25.10;99.90;;;;;;5461725;26;20009;-77
2024/04/12 12:58:26;;;;;;;9.65;6.40;;;25.20;99.90;;;;;;5464904;26;20316;-77
2024/04/12 13:00:59;;;;;;;13.77;6.95;;;25.20;99.90;;;;;;5463270;26;20003;-77
2024/04/12 13:03:29;;;;;;;11.07;7.05;;;25.30;99.90;;;;;;5465415;26;20010;-77
2024/04/12 13:05:56;;;;;;;15.02;8.07;;;25.20;99.90;;;;;;5449716;26;20006;-77
2024/04/12 13:08:25;;;;;;;7.95;5.75;;;25.10;12.90;;;;;;5460769;26;19999;-77
2024/04/12 13:10:54;;;;;;;10.52;6.22;;;25.10;92.50;;;;;;5466452;26;20483;-77
2024/04/12 13:13:22;;;;;;;9.55;7.13;;;25.20;98.10;;;;;;5449913;26;20026;-77
2024/04/12 13:15:54;;;;;;;13.15;6.90;;;25.20;93.90;;;;;;5452464;26;20003;-77
2024/04/12 13:18:23;;;;;;;13.45;6.78;;;25.30;99.90;;;;;;5458157;26;20002;-77
2024/04/12 13:20:50;;;;;;;16.48;7.10;;;25.40;99.90;;;;;;5460845;26;20569;-77
2024/04/12 13:23:17;;;;;;;8.70;6.47;;;25.40;78.50;;;;;;5464954;26;20006;-77
2024/04/12 13:25:44;;;;;;;10.70;6.75;;;25.60;99.90;;;;;;5460916;26;20097;-77
2024/04/12 13:28:12;;;;;;;9.57;7.75;;;25.60;99.90;;;;;;5460039;26;20396;-77
2024/04/12 13:30:41;;;;;;;14.88;7.80;;;25.50;35.90;;;;;;5465695;26;20006;-77
2024/04/12 13:33:10;;;;;;;11.68;7.80;;;25.60;50.40;;;;;;5461591;26;19994;-77
2024/04/12 13:35:40;;;;;;;10.00;6.35;;;25.60;2.40;;;;;;5465388;26;19998;-77
2024/04/12 13:38:14;;;;;;;13.40;7.07;;;25.60;49.50;;;;;;5459592;26;20002;-77
2024/04/12 13:40:45;;;;;;;11.48;6.55;;;25.70;33.60;;;;;;5463168;26;20026;-77
2024/04/12 13:43:16;;;;;;;14.52;7.30;;;25.80;99.90;;;;;;5461642;26;20071;-77
2024/04/12 13:51:21;;;;;;;9.20;7.60;;;25.90;20.10;;;;;;5456445;26;20541;-77
2024/04/12 13:53:52;;;;;;;11.00;6.63;;;25.90;1.00;;;;;;5464066;26;19998;-77
2024/04/12 13:56:25;;;;;;;8.25;6.95;;;25.90;10.90;;;;;;5458366;26;19999;-77
2024/04/12 13:58:59;;;;;;;14.82;7.38;;;25.80;1.00;;;;;;5458525;26;19991;-77
2024/04/12 14:01:29;;;;;;;9.55;7.00;;;25.80;1.00;;;;;;5459827;26;20002;-74
2024/04/12 14:04:04;;;;;;;8.65;6.38;;;25.90;1.00;;;;;;5462589;26;20400;-77
2024/04/12 14:06:34;;;;;;;9.68;6.55;;;25.90;1.00;;;;;;5453446;26;20353;-77
2024/04/12 14:09:02;;;;;;;6.82;5.60;;;25.90;1.00;;;;;;5463326;26;20031;-77
2024/04/12 14:11:28;;;;;;;14.07;10.05;;;26.00;1.00;;;;;;5465358;26;20012;-77
2024/04/12 14:13:54;;;;;;;16.60;7.75;;;26.00;1.00;;;;;;5459101;26;20014;-77
2024/04/12 14:16:28;;;;;;;20.92;6.57;;;26.00;1.00;;;;;;5461940;26;19998;-77
2024/04/12 14:18:55;;;;;;;17.98;8.02;;;26.00;1.00;;;;;;5461711;26;20033;-77
2024/04/12 14:21:21;;;;;;;13.10;7.28;;;26.00;1.00;;;;;;5463842;26;19998;-77
2024/04/12 14:23:50;;;;;;;9.65;6.07;;;25.90;1.00;;;;;;5459857;26;20030;-77
2024/04/12 14:26:19;;;;;;;9.48;6.40;;;26.00;1.00;;;;;;5462082;26;20443;-77
2024/04/12 14:28:45;;;;;;;11.90;6.38;;;26.10;1.00;;;;;;5461571;26;20519;-77
2024/04/12 14:31:11;;;;;;;11.98;6.53;;;26.10;1.00;;;;;;5461183;26;20051;-77